Time;durP1;ratioP1;P1;durP2;ratioP2;P2;SDS_P1;SDS_P2;PMS_P1;PMS_P2;Temp;Humidity;BMP_temperature;BMP_pressure;BME280_temperature;BME280_humidity;BME280_pressure;Samples;Min_cycle;Max_cycle;Signal;HPM_P1;HPM_P2
2022/05/14 00:00:17;;;;;;;;;;;;;;;15.26;70.81;95182.63;5093800;28;1058;-48
2022/05/14 00:02:43;;;;;;;;;;;;;;;15.23;70.87;95183.84;5093446;28;972;-49
2022/05/14 00:05:10;;;;;;;;;;;;;;;15.23;70.77;95185.69;5093464;28;1059;-49
2022/05/14 00:07:36;;;;;;;;;;;;;;;15.34;70.15;95176.28;5093087;28;1043;-49
2022/05/14 00:10:03;;;;;;;;;;;;;;;15.45;69.71;95183.88;5093548;28;1991;-49
2022/05/14 00:15:13;;;;;;;;;;;;;;;15.18;70.22;95177.34;5093239;28;1023;-49
2022/05/14 00:17:39;;;;;;;;;;;;;;;15.05;70.81;95166.41;5092934;28;1061;-49
2022/05/14 00:20:06;;;;;;;;;;;;;;;15.05;70.90;95163.72;5093035;28;1225;-49
2022/05/14 00:22:32;;;;;;;;;;;;;;;15.03;70.90;95167.44;5093208;28;1043;-49
2022/05/14 00:24:58;;;;;;;;;;;;;;;15.14;70.26;95165.25;5093251;28;1107;-49
2022/05/14 00:27:24;;;;;;;;;;;;;;;15.08;70.08;95160.63;5092817;28;1173;-49
2022/05/14 00:29:50;;;;;;;;;;;;;;;15.02;70.05;95163.09;5093238;28;1918;-49
2022/05/14 00:32:16;;;;;;;;;;;;;;;14.70;71.43;95163.47;5092918;28;1090;-49
2022/05/14 00:34:42;;;;;;;;;;;;;;;14.63;71.87;95156.16;5093144;28;992;-49
2022/05/14 00:37:09;;;;;;;;;;;;;;;14.86;71.47;95157.91;5093216;28;1023;-49
2022/05/14 00:39:35;;;;;;;;;;;;;;;14.59;71.69;95154.84;5093267;28;1028;-49
2022/05/14 00:42:01;;;;;;;;;;;;;;;14.40;72.60;95158.91;5093188;28;1038;-49
2022/05/14 00:44:27;;;;;;;;;;;;;;;14.45;72.72;95155.63;5093067;28;1032;-49
2022/05/14 00:47:09;;;;;;;;;;;;;;;14.62;71.80;95151.78;5093057;28;1047;-49
2022/05/14 00:49:35;;;;;;;;;;;;;;;14.75;71.41;95150.28;5092899;28;1914;-49
2022/05/14 00:52:02;;;;;;;;;;;;;;;14.73;71.22;95155.84;5093101;28;976;-49
2022/05/14 00:54:41;;;;;;;;;;;;;;;14.51;71.78;95160.28;5092939;28;995;-49
2022/05/14 00:57:10;;;;;;;;;;;;;;;14.34;72.73;95148.03;5093065;28;991;-49
2022/05/14 00:59:36;;;;;;;;;;;;;;;14.43;72.31;95153.13;5092780;28;1036;-49
2022/05/14 01:02:04;;;;;;;;;;;;;;;14.54;71.82;95149.16;5092837;28;1041;-48
2022/05/14 01:04:30;;;;;;;;;;;;;;;14.33;72.14;95155.28;5092936;28;988;-49
2022/05/14 01:07:03;;;;;;;;;;;;;;;14.04;73.31;95153.38;5093005;28;1063;-49
2022/05/14 01:09:30;;;;;;;;;;;;;;;14.13;73.13;95157.63;5092685;28;1986;-49
2022/05/14 01:11:56;;;;;;;;;;;;;;;14.25;72.61;95158.06;5092832;28;953;-49
2022/05/14 01:14:23;;;;;;;;;;;;;;;14.32;72.00;95164.34;5092504;28;1008;-49
2022/05/14 01:16:51;;;;;;;;;;;;;;;14.31;72.24;95167.25;5092724;28;1032;-49
2022/05/14 01:19:17;;;;;;;;;;;;;;;14.38;71.88;95160.06;5092341;28;1069;-49
2022/05/14 01:21:55;;;;;;;;;;;;;;;14.37;71.92;95153.03;5092728;28;1032;-49
2022/05/14 01:27:25;;;;;;;;;;;;;;;14.32;72.30;95155.44;5093283;28;1157;-49
2022/05/14 01:29:52;;;;;;;;;;;;;;;14.27;72.31;95153.31;5096067;28;2023;-49
2022/05/14 01:32:18;;;;;;;;;;;;;;;14.06;72.30;95151.34;5096177;28;1004;-49
2022/05/14 01:34:44;;;;;;;;;;;;;;;13.94;72.79;95145.56;5096182;28;965;-49
2022/05/14 01:37:10;;;;;;;;;;;;;;;13.93;72.83;95143.06;5096533;28;1017;-49
2022/05/14 01:39:37;;;;;;;;;;;;;;;14.06;72.74;95148.66;5096068;28;1181;-49
2022/05/14 01:42:04;;;;;;;;;;;;;;;14.01;73.15;95151.03;5096258;28;952;-49
2022/05/14 01:44:30;;;;;;;;;;;;;;;13.95;73.40;95149.91;5095783;28;1031;-49
2022/05/14 01:46:56;;;;;;;;;;;;;;;14.00;73.38;95142.16;5096304;28;1039;-49
2022/05/14 01:49:22;;;;;;;;;;;;;;;13.98;73.02;95140.66;5095772;28;1057;-49
2022/05/14 01:51:48;;;;;;;;;;;;;;;13.99;73.09;95145.84;5095920;28;1909;-49
2022/05/14 01:54:14;;;;;;;;;;;;;;;13.97;73.03;95147.06;5095657;28;977;-49
2022/05/14 01:56:40;;;;;;;;;;;;;;;13.78;73.41;95143.03;5095767;28;1027;-49
2022/05/14 01:59:06;;;;;;;;;;;;;;;13.58;74.33;95142.66;5095544;28;1063;-49
2022/05/14 02:01:36;;;;;;;;;;;;;;;13.71;73.62;95148.28;5095657;28;1020;-49
2022/05/14 02:04:07;;;;;;;;;;;;;;;13.91;73.07;95140.56;5095596;28;1067;-49
2022/05/14 02:06:34;;;;;;;;;;;;;;;13.84;72.66;95148.50;5095580;28;1105;-49
2022/05/14 02:09:01;;;;;;;;;;;;;;;13.80;72.65;95152.56;5095349;28;1043;-49
2022/05/14 02:11:28;;;;;;;;;;;;;;;13.82;72.46;95144.34;5095546;28;1909;-49
2022/05/14 02:13:54;;;;;;;;;;;;;;;13.66;72.84;95151.50;5095648;28;1039;-49
2022/05/14 02:16:20;;;;;;;;;;;;;;;13.59;72.58;95149.72;5095697;28;1040;-49
2022/05/14 02:18:47;;;;;;;;;;;;;;;13.51;73.02;95142.56;5095646;28;965;-49
2022/05/14 02:21:13;;;;;;;;;;;;;;;13.59;72.65;95145.19;5095212;28;1242;-49
2022/05/14 02:23:39;;;;;;;;;;;;;;;13.53;72.75;95145.91;5095006;28;1286;-49
2022/05/14 02:26:06;;;;;;;;;;;;;;;13.47;73.36;95147.47;5095109;28;1146;-49
2022/05/14 02:28:33;;;;;;;;;;;;;;;13.51;72.96;95152.44;5094952;28;1059;-49
2022/05/14 02:30:59;;;;;;;;;;;;;;;13.32;73.62;95149.25;5095063;28;1913;-49
2022/05/14 02:33:25;;;;;;;;;;;;;;;13.33;74.16;95144.72;5095107;28;984;-49
2022/05/14 02:35:51;;;;;;;;;;;;;;;13.36;74.25;95152.41;5095260;28;1051;-49
2022/05/14 02:38:17;;;;;;;;;;;;;;;13.56;73.30;95155.44;5094905;28;960;-49
2022/05/14 02:40:43;;;;;;;;;;;;;;;13.54;73.35;95152.94;5095028;28;960;-49
2022/05/14 02:43:10;;;;;;;;;;;;;;;13.39;73.45;95157.41;5094906;28;1045;-49
2022/05/14 02:45:36;;;;;;;;;;;;;;;13.32;73.50;95156.44;5094581;28;1878;-49
2022/05/14 02:48:02;;;;;;;;;;;;;;;13.35;73.34;95159.63;5094946;28;977;-50
2022/05/14 02:50:28;;;;;;;;;;;;;;;13.29;73.09;95158.44;5094767;28;1993;-50
2022/05/14 02:52:54;;;;;;;;;;;;;;;13.09;74.08;95150.03;5094644;28;1015;-50
2022/05/14 02:55:21;;;;;;;;;;;;;;;12.99;74.38;95151.25;5094592;28;1026;-49
2022/05/14 02:57:47;;;;;;;;;;;;;;;12.91;74.87;95144.09;5094585;28;1016;-49
2022/05/14 03:00:15;;;;;;;;;;;;;;;12.84;75.33;95151.16;5094605;28;952;-49
2022/05/14 03:02:41;;;;;;;;;;;;;;;12.89;75.38;95149.63;5094554;28;1031;-49
2022/05/14 03:05:08;;;;;;;;;;;;;;;13.06;74.65;95147.69;5094635;28;964;-49
2022/05/14 03:07:34;;;;;;;;;;;;;;;13.13;74.22;95142.47;5094295;28;1004;-49
2022/05/14 03:10:00;;;;;;;;;;;;;;;13.05;74.41;95147.84;5094348;28;1984;-49
2022/05/14 03:12:26;;;;;;;;;;;;;;;12.97;74.62;95150.59;5094474;28;1039;-49
2022/05/14 03:14:52;;;;;;;;;;;;;;;12.93;74.44;95154.66;5094299;28;964;-48
2022/05/14 03:17:18;;;;;;;;;;;;;;;12.89;74.72;95148.78;5094053;28;967;-49
2022/05/14 03:19:45;;;;;;;;;;;;;;;12.69;75.79;95146.53;5094081;28;1279;-49
2022/05/14 03:22:11;;;;;;;;;;;;;;;12.76;75.13;95154.72;5094140;28;973;-48
2022/05/14 03:24:37;;;;;;;;;;;;;;;12.85;74.89;95163.56;5094090;28;959;-49
2022/05/14 03:27:04;;;;;;;;;;;;;;;12.95;74.50;95157.97;5094327;28;1154;-49
2022/05/14 03:29:30;;;;;;;;;;;;;;;12.93;74.30;95162.69;5093760;28;1868;-50
2022/05/14 03:31:57;;;;;;;;;;;;;;;12.98;73.91;95166.53;5094022;28;2090;-50
2022/05/14 03:34:24;;;;;;;;;;;;;;;13.00;74.06;95166.34;5093801;28;1023;-50
2022/05/14 03:36:50;;;;;;;;;;;;;;;12.96;74.21;95181.97;5094369;28;1027;-49
2022/05/14 03:39:17;;;;;;;;;;;;;;;13.00;74.12;95174.41;5094077;28;1066;-49
2022/05/14 03:41:43;;;;;;;;;;;;;;;13.15;73.67;95174.50;5093992;28;961;-50
2022/05/14 03:44:09;;;;;;;;;;;;;;;13.16;73.95;95176.16;5093753;28;1044;-49
2022/05/14 03:46:35;;;;;;;;;;;;;;;13.05;74.45;95174.69;5093511;28;1044;-50
2022/05/14 03:49:02;;;;;;;;;;;;;;;13.19;74.77;95182.00;5093522;28;1060;-49
2022/05/14 03:51:29;;;;;;;;;;;;;;;13.40;74.62;95188.66;5093201;28;1992;-50
2022/05/14 03:53:56;;;;;;;;;;;;;;;13.78;73.69;95191.41;5093571;28;1019;-48
2022/05/14 03:56:22;;;;;;;;;;;;;;;13.95;73.21;95187.56;5093395;28;1020;-49
2022/05/14 03:58:48;;;;;;;;;;;;;;;14.21;73.12;95192.53;5093739;28;961;-48
2022/05/14 04:01:15;;;;;;;;;;;;;;;14.44;72.83;95194.34;5093383;28;1019;-49
2022/05/14 04:03:41;;;;;;;;;;;;;;;14.69;72.48;95203.00;5092588;28;1042;-49
2022/05/14 04:06:07;;;;;;;;;;;;;;;14.76;72.86;95205.78;5093280;28;1062;-49
2022/05/14 04:08:34;;;;;;;;;;;;;;;14.78;72.78;95204.59;5093487;28;1040;-49
2022/05/14 04:11:00;;;;;;;;;;;;;;;14.91;73.08;95193.19;5093443;28;1914;-49
2022/05/14 04:13:26;;;;;;;;;;;;;;;14.98;73.45;95198.63;5093640;28;996;-49
2022/05/14 04:15:52;;;;;;;;;;;;;;;15.00;73.88;95208.19;5093508;28;968;-49
2022/05/14 04:18:24;;;;;;;;;;;;;;;15.06;73.46;95213.84;5093333;28;1031;-49
2022/05/14 04:20:53;;;;;;;;;;;;;;;15.14;73.30;95203.81;5092972;28;1140;-49
2022/05/14 04:23:20;;;;;;;;;;;;;;;15.23;73.29;95201.84;5093125;28;1043;-49
2022/05/14 04:25:50;;;;;;;;;;;;;;;15.27;73.27;95210.38;5093152;28;1201;-50
2022/05/14 04:28:17;;;;;;;;;;;;;;;15.26;73.93;95214.94;5093483;28;1048;-49
2022/05/14 04:30:44;;;;;;;;;;;;;;;15.24;74.45;95219.69;5093002;28;1983;-49
2022/05/14 04:33:10;;;;;;;;;;;;;;;15.35;72.25;95219.19;5093500;28;1067;-49
2022/05/14 04:35:36;;;;;;;;;;;;;;;15.42;72.36;95216.56;5093216;28;976;-49
2022/05/14 04:38:02;;;;;;;;;;;;;;;15.55;72.09;95224.78;5093416;28;1000;-49
2022/05/14 04:40:28;;;;;;;;;;;;;;;15.95;72.74;95225.28;5092941;28;952;-49
2022/05/14 04:42:54;;;;;;;;;;;;;;;16.41;69.91;95224.00;5093237;28;1056;-49
2022/05/14 04:45:21;;;;;;;;;;;;;;;16.63;69.57;95230.19;5092952;28;1205;-49
2022/05/14 04:47:47;;;;;;;;;;;;;;;16.91;68.13;95229.38;5093042;28;1055;-49
2022/05/14 04:50:14;;;;;;;;;;;;;;;17.31;67.97;95219.59;5093204;28;1906;-49
2022/05/14 04:52:40;;;;;;;;;;;;;;;17.55;66.25;95220.13;5092995;28;957;-49
2022/05/14 04:55:06;;;;;;;;;;;;;;;17.83;65.38;95217.28;5093010;28;1055;-49
2022/05/14 04:57:32;;;;;;;;;;;;;;;18.39;62.72;95221.53;5092672;28;1062;-50
2022/05/14 04:59:59;;;;;;;;;;;;;;;18.76;60.97;95223.81;5092965;28;1008;-49
2022/05/14 05:05:11;;;;;;;;;;;;;;;19.14;60.52;95231.25;5097095;28;965;-49
2022/05/14 05:07:37;;;;;;;;;;;;;;;19.21;60.88;95235.63;5096799;28;1043;-49
2022/05/14 05:10:03;;;;;;;;;;;;;;;18.54;62.67;95234.88;5096521;28;1975;-49
2022/05/14 05:12:29;;;;;;;;;;;;;;;18.29;62.99;95234.66;5096571;28;1137;-49
2022/05/14 05:14:57;;;;;;;;;;;;;;;17.88;63.97;95228.34;5096605;28;1031;-49
2022/05/14 05:17:23;;;;;;;;;;;;;;;17.76;65.15;95225.38;5096136;28;1004;-49
2022/05/14 05:19:49;;;;;;;;;;;;;;;18.01;64.47;95227.53;5096555;28;1211;-49
2022/05/14 05:22:15;;;;;;;;;;;;;;;18.87;62.55;95236.75;5096490;28;983;-49
2022/05/14 05:24:41;;;;;;;;;;;;;;;18.66;62.49;95225.06;5096334;28;1962;-49
2022/05/14 05:27:07;;;;;;;;;;;;;;;18.44;62.98;95231.72;5096158;28;1157;-49
2022/05/14 05:29:33;;;;;;;;;;;;;;;18.30;63.64;95233.59;5096492;28;974;-50
2022/05/14 05:32:00;;;;;;;;;;;;;;;18.55;63.99;95236.53;5096350;28;1981;-48
2022/05/14 05:34:26;;;;;;;;;;;;;;;19.10;62.06;95230.84;5096409;28;1007;-48
2022/05/14 05:36:53;;;;;;;;;;;;;;;20.28;58.27;95227.84;5096351;28;1048;-49
2022/05/14 05:39:19;;;;;;;;;;;;;;;20.01;59.33;95235.28;5096105;28;960;-49
2022/05/14 05:41:45;;;;;;;;;;;;;;;21.37;54.98;95240.25;5096010;28;1059;-49
2022/05/14 05:44:12;;;;;;;;;;;;;;;22.59;51.12;95239.28;5096297;28;972;-50
2022/05/14 05:46:38;;;;;;;;;;;;;;;23.46;49.33;95241.34;5096045;28;1004;-50
2022/05/14 05:49:05;;;;;;;;;;;;;;;23.53;49.43;95239.31;5096034;28;968;-50
2022/05/14 05:51:31;;;;;;;;;;;;;;;23.60;48.77;95236.47;5095982;28;2001;-50
2022/05/14 05:56:56;;;;;;;;;;;;;;;23.22;50.07;95235.09;5095907;28;968;-49
2022/05/14 05:59:23;;;;;;;;;;;;;;;22.80;52.13;95240.59;5095885;28;952;-49
2022/05/14 06:01:51;;;;;;;;;;;;;;;22.67;51.27;95233.50;5095785;28;1040;-49
2022/05/14 06:04:17;;;;;;;;;;;;;;;21.89;53.69;95237.94;5095764;28;991;-49
2022/05/14 06:06:43;;;;;;;;;;;;;;;21.17;54.52;95235.00;5095662;28;1024;-49
2022/05/14 06:09:14;;;;;;;;;;;;;;;20.92;56.52;95235.06;5095502;28;1213;-49
2022/05/14 06:11:44;;;;;;;;;;;;;;;20.64;56.68;95231.75;5095338;28;1906;-49
2022/05/14 06:14:10;;;;;;;;;;;;;;;20.55;56.62;95232.25;5095094;28;1015;-49
2022/05/14 06:16:37;;;;;;;;;;;;;;;20.59;57.00;95238.88;5095644;28;1083;-49
2022/05/14 06:19:04;;;;;;;;;;;;;;;20.61;56.26;95231.38;5094889;28;1235;-51
2022/05/14 06:21:30;;;;;;;;;;;;;;;21.18;55.84;95236.69;5095382;28;1027;-49
2022/05/14 06:23:56;;;;;;;;;;;;;;;20.86;55.68;95239.50;5095287;28;960;-49
2022/05/14 06:26:22;;;;;;;;;;;;;;;20.46;57.50;95247.97;5095433;28;1263;-49
2022/05/14 06:28:48;;;;;;;;;;;;;;;20.19;58.38;95239.19;5095007;28;1939;-50
2022/05/14 06:31:16;;;;;;;;;;;;;;;20.02;59.22;95238.88;5095351;28;1910;-49
2022/05/14 06:33:44;;;;;;;;;;;;;;;20.14;58.12;95241.72;5095132;28;956;-49
2022/05/14 06:36:10;;;;;;;;;;;;;;;20.43;57.32;95242.97;5095163;28;953;-49
2022/05/14 06:38:37;;;;;;;;;;;;;;;20.83;55.82;95242.66;5094675;28;964;-49
2022/05/14 06:41:04;;;;;;;;;;;;;;;21.45;54.85;95248.13;5095278;28;972;-49
2022/05/14 06:43:30;;;;;;;;;;;;;;;22.16;52.90;95243.06;5094710;28;1071;-49
2022/05/14 06:45:56;;;;;;;;;;;;;;;22.17;52.28;95242.81;5094871;28;1027;-49
2022/05/14 06:48:22;;;;;;;;;;;;;;;21.87;52.40;95239.25;5094707;28;1087;-49
2022/05/14 06:50:49;;;;;;;;;;;;;;;22.14;52.54;95240.56;5094712;28;1988;-49
2022/05/14 06:53:16;;;;;;;;;;;;;;;22.51;52.20;95242.34;5094434;28;1091;-49
2022/05/14 06:55:42;;;;;;;;;;;;;;;22.54;50.82;95240.00;5094941;28;976;-49
2022/05/14 06:58:11;;;;;;;;;;;;;;;22.46;51.45;95244.94;5094511;28;1864;-49
2022/05/14 07:00:37;;;;;;;;;;;;;;;22.19;52.46;95237.13;5094823;28;1043;-49
2022/05/14 07:08:33;;;;;;;;;;;;;;;21.60;54.02;95231.44;5094173;28;1079;-49
2022/05/14 07:10:59;;;;;;;;;;;;;;;21.67;54.38;95236.81;5094601;28;1910;-49
2022/05/14 07:13:25;;;;;;;;;;;;;;;21.92;53.83;95233.97;5094447;28;980;-49
2022/05/14 07:15:51;;;;;;;;;;;;;;;22.56;51.84;95234.31;5094675;28;1031;-49
2022/05/14 07:18:17;;;;;;;;;;;;;;;22.54;51.68;95233.72;5093762;28;1035;-50
2022/05/14 07:20:43;;;;;;;;;;;;;;;22.08;52.03;95241.47;5094170;28;1084;-50
2022/05/14 07:23:09;;;;;;;;;;;;;;;21.98;53.19;95236.56;5094137;28;973;-48
2022/05/14 07:25:35;;;;;;;;;;;;;;;22.10;53.61;95238.50;5093424;28;1169;-48
2022/05/14 07:28:01;;;;;;;;;;;;;;;22.95;53.12;95242.88;5093885;28;1019;-48
2022/05/14 07:30:27;;;;;;;;;;;;;;;23.29;51.03;95243.97;5094001;28;1990;-49
2022/05/14 07:32:53;;;;;;;;;;;;;;;23.21;51.61;95238.88;5093962;28;960;-49
2022/05/14 07:35:19;;;;;;;;;;;;;;;23.52;51.14;95239.53;5093970;28;988;-48
2022/05/14 07:37:47;;;;;;;;;;;;;;;24.14;48.27;95242.47;5094094;28;1011;-48
2022/05/14 07:40:22;;;;;;;;;;;;;;;24.74;48.22;95243.03;5093692;28;1079;-48
2022/05/14 07:42:59;;;;;;;;;;;;;;;25.01;47.88;95240.44;5093841;28;1031;-48
2022/05/14 07:45:28;;;;;;;;;;;;;;;25.19;48.43;95233.88;5093802;28;1172;-48
2022/05/14 07:47:56;;;;;;;;;;;;;;;24.71;48.51;95236.13;5093835;28;1051;-47
2022/05/14 07:50:22;;;;;;;;;;;;;;;25.20;47.60;95238.28;5093412;28;1995;-47
2022/05/14 07:52:49;;;;;;;;;;;;;;;25.52;47.42;95243.97;5093729;28;964;-47
2022/05/14 07:55:15;;;;;;;;;;;;;;;25.55;48.10;95241.81;5093742;28;972;-47
2022/05/14 07:57:41;;;;;;;;;;;;;;;25.04;48.43;95242.69;5092658;28;993;-47
2022/05/14 08:00:07;;;;;;;;;;;;;;;24.80;48.93;95233.00;5093387;28;1073;-47
2022/05/14 08:02:34;;;;;;;;;;;;;;;24.79;48.00;95237.63;5093402;28;1079;-47
2022/05/14 08:05:03;;;;;;;;;;;;;;;24.99;48.29;95239.88;5093277;28;1082;-47
2022/05/14 08:07:29;;;;;;;;;;;;;;;24.96;49.09;95234.91;5093437;28;1054;-47
2022/05/14 08:09:55;;;;;;;;;;;;;;;24.70;49.11;95239.97;5093253;28;1987;-48
2022/05/14 08:12:22;;;;;;;;;;;;;;;24.54;49.58;95229.84;5093375;28;1034;-48
2022/05/14 08:14:48;;;;;;;;;;;;;;;24.61;49.55;95233.25;5093180;28;1083;-48
2022/05/14 08:17:14;;;;;;;;;;;;;;;24.44;49.45;95219.53;5093638;28;1047;-48
2022/05/14 08:19:40;;;;;;;;;;;;;;;24.49;50.87;95226.97;5092919;28;1332;-48
2022/05/14 08:24:51;;;;;;;;;;;;;;;24.62;49.78;95225.88;5093452;28;1055;-48
2022/05/14 08:27:17;;;;;;;;;;;;;;;24.81;49.19;95234.66;5092885;28;1153;-48
2022/05/14 08:29:47;;;;;;;;;;;;;;;25.09;49.07;95233.72;5093225;28;1035;-48
2022/05/14 08:32:14;;;;;;;;;;;;;;;25.26;49.70;95222.78;5093486;28;968;-48
2022/05/14 08:34:40;;;;;;;;;;;;;;;25.39;48.05;95230.66;5092883;28;1067;-48
2022/05/14 08:37:07;;;;;;;;;;;;;;;26.05;47.04;95227.13;5094909;28;1106;-48
2022/05/14 08:39:33;;;;;;;;;;;;;;;26.79;46.49;95226.50;5097433;28;1027;-48
2022/05/14 08:42:00;;;;;;;;;;;;;;;27.17;44.96;95221.03;5097320;28;1037;-48
2022/05/14 08:44:27;;;;;;;;;;;;;;;27.27;44.22;95218.38;5097028;28;1036;-48
2022/05/14 08:46:55;;;;;;;;;;;;;;;27.25;43.26;95223.31;5097215;28;1099;-48
2022/05/14 08:49:24;;;;;;;;;;;;;;;27.19;43.05;95222.41;5097034;28;1306;-49
2022/05/14 08:51:51;;;;;;;;;;;;;;;27.47;43.50;95223.19;5096704;28;1914;-48
2022/05/14 08:54:18;;;;;;;;;;;;;;;27.58;42.55;95219.38;5097196;28;1015;-48
2022/05/14 08:56:44;;;;;;;;;;;;;;;27.35;41.94;95220.63;5096955;28;1047;-48
2022/05/14 08:59:13;;;;;;;;;;;;;;;27.54;43.26;95221.00;5097260;28;1021;-48
2022/05/14 09:01:42;;;;;;;;;;;;;;;27.50;42.05;95222.63;5096974;28;976;-48
2022/05/14 09:04:09;;;;;;;;;;;;;;;27.61;43.07;95227.09;5096811;28;1016;-48
2022/05/14 09:06:39;;;;;;;;;;;;;;;27.50;42.44;95219.88;5096836;28;1187;-48
2022/05/14 09:09:05;;;;;;;;;;;;;;;27.59;42.19;95222.97;5097098;28;968;-48
2022/05/14 09:11:42;;;;;;;;;;;;;;;27.81;41.22;95215.38;5096818;28;1991;-48
2022/05/14 09:14:19;;;;;;;;;;;;;;;27.90;41.22;95210.22;5096772;28;1098;-48
2022/05/14 09:16:47;;;;;;;;;;;;;;;28.06;42.02;95205.63;5096436;28;1020;-48
